This is the latest recevied weather packets stored in our database for station/object VK5TRM-13. If no packets are shown the sender has not sent any weather packets the latest 10 day(s).
| Time | Temp. | Humidity | Pressure | Rain* | Wind** | Luminosity | Snow |
|---|---|---|---|---|---|---|---|
| 1778214604 | 18.89° C | 64% | 1027.8 hPa | 0 mm | - | - | - |
| 1778213704 | 18.89° C | 64% | 1027.8 hPa | 0 mm | - | - | - |
| 1778212805 | 18.33° C | 63% | 1028.2 hPa | 0 mm | - | - | - |
| 1778211905 | 18.33° C | 63% | 1028.2 hPa | 0 mm | - | - | - |
| 1778211004 | 17.78° C | 66% | 1028.7 hPa | 0 mm | - | - | - |
| 1778210104 | 17.78° C | 66% | 1028.7 hPa | 0 mm | - | - | - |
| 1778209204 | 17.78° C | 65% | 1029.3 hPa | 0 mm | - | - | - |
| 1778208304 | 17.78° C | 65% | 1029.3 hPa | 0 mm | - | - | - |
| 1778207405 | 17.22° C | 66% | 1029.6 hPa | 0 mm | - | - | - |
| 1778206505 | 17.22° C | 66% | 1029.6 hPa | 0 mm | - | - | - |
| 1778205605 | 16.67° C | 66% | 1029.8 hPa | 0 mm | - | - | - |
| 1778204705 | 16.67° C | 66% | 1029.8 hPa | 0 mm | - | - | - |
| 1778203804 | 16.11° C | 69% | 1029.9 hPa | 0 mm | - | - | - |
| 1778202904 | 16.11° C | 69% | 1029.9 hPa | 0 mm | - | - | - |
| 1778202004 | 16.11° C | 70% | 1030.1 hPa | 0 mm | - | - | - |
| 1778201104 | 16.11° C | 70% | 1030.1 hPa | 0 mm | - | - | - |
| 1778200204 | 15.56° C | 70% | 1030.2 hPa | 0 mm | - | - | - |
| 1778199304 | 15.56° C | 70% | 1030.2 hPa | 0 mm | - | - | - |
| 1778198404 | 14.44° C | 72% | 1030.1 hPa | 0 mm | - | - | - |
| 1778197504 | 14.44° C | 72% | 1030.1 hPa | 0 mm | - | - | - |
| 1778196605 | 14.44° C | 74% | 1029.9 hPa | 0 mm | - | - | - |
| 1778195705 | 14.44° C | 74% | 1029.9 hPa | 0 mm | - | - | - |
| 1778194804 | 13.33° C | 77% | 1029.5 hPa | 0 mm | - | - | - |
| 1778193904 | 13.33° C | 77% | 1029.5 hPa | 0 mm | - | - | - |
| 1778193004 | 12.22° C | 83% | 1029.2 hPa | 0 mm | - | - | - |
* Rain since midnight (hover to see other rain measurements)
** Current wind speed in m/s (hover to see current wind gust speed)